Peixe Azul — CUBF5 — position and weather

sailwx.info

Track history (hours):
 
Tides and Currents Weather Stations Pressure Air Temp Water Temp Dewpoint Dewpoint Depression Visibility Wind Speed Wind Dir Waves Ship Positions

Peixe Azul

Last reported at 2017-Oct-13 04:17 UTC. Time now 2017-Oct-18 11:04 UTC.
Position N 36°56' W 008°08'.

Length 23 m.

Type: Fishing. MMSI: 263406560.

Date/timePositionNaut miles runAvg speedWind from/ knotsBaromVisibWave heightAir tempDewpointWater temp
2017-Oct-13 04:17N 36°56' W 008°08'0 0.6
2017-Oct-13 03:49N 36°56' W 008°08'0 0.5
2017-Oct-13 03:05N 36°56' W 008°07'0 0.3
2017-Oct-13 03:00N 36°56' W 008°07'0 0.2
2017-Oct-13 02:21N 36°56' W 008°07'0 0.9
2017-Oct-13 01:56N 36°56' W 008°07'  
2017-Oct-10 03:48N 36°57' W 008°09'1 2.9
2017-Oct-10 03:27N 36°57' W 008°09'0 0.7
2017-Oct-10 03:00N 36°56' W 008°09'0 0.6
2017-Oct-10 02:30N 36°56' W 008°08'0 0.5
2017-Oct-10 02:00N 36°56' W 008°08'0 0.6
2017-Oct-10 01:30N 36°56' W 008°08'0 0.5
2017-Oct-10 00:58N 36°55' W 008°08'0 0.6
2017-Oct-10 00:25N 36°55' W 008°07'3 7.0
2017-Oct-10 00:00N 36°58' W 008°08'1 0.1
2017-Oct-09 07:34N 36°59' W 008°07'3 9.6
2017-Oct-09 07:13N 36°56' W 008°07'0 1.2
2017-Oct-09 06:58N 36°55' W 008°07'0 0.4
2017-Oct-09 06:30N 36°55' W 008°06'0 0.3
2017-Oct-09 06:00N 36°55' W 008°06'0 0.2
2017-Oct-09 05:30N 36°55' W 008°06'0 0.4
2017-Oct-09 05:00N 36°55' W 008°06'1 2.2
2017-Oct-09 04:30N 36°56' W 008°06'1 1.9
2017-Oct-09 04:00N 36°57' W 008°07'2 4.9
2017-Oct-09 03:30N 36°58' W 008°04'2 4.8
2017-Oct-09 03:00N 36°57' W 008°02'2 0.7
2017-Oct-09 00:32N 36°56' W 008°03'1 8.3
2017-Oct-09 00:28N 36°56' W 008°03'4 7.9
2017-Oct-09 00:00N 36°59' W 008°05'  
2017-Oct-06 00:55N 36°55' W 008°04'4 4.8
2017-Oct-06 00:06N 36°59' W 008°05'1 8.4
2017-Oct-05 23:58N 37°00' W 008°06'  
Track history (hours):
 
Tides and Currents Weather Stations Pressure Air Temp Water Temp Dewpoint Dewpoint Depression Visibility Wind Speed Wind Dir Waves Ship Positions

Peixe Azul

Last reported at 2017-Oct-13 04:17 UTC. Time now 2017-Oct-18 11:04 UTC.
Position N 36°56' W 008°08'.

Length 23 m.

Type: Fishing. MMSI: 263406560.

Date/timePositionNaut miles runAvg speedWind from/ knotsBaromVisibWave heightAir tempDewpointWater temp
2017-Oct-13 04:17N 36°56' W 008°08'0 0.6
2017-Oct-13 03:49N 36°56' W 008°08'0 0.5
2017-Oct-13 03:05N 36°56' W 008°07'0 0.3
2017-Oct-13 03:00N 36°56' W 008°07'0 0.2
2017-Oct-13 02:21N 36°56' W 008°07'0 0.9
2017-Oct-13 01:56N 36°56' W 008°07'  
2017-Oct-10 03:48N 36°57' W 008°09'1 2.9
2017-Oct-10 03:27N 36°57' W 008°09'0 0.7
2017-Oct-10 03:00N 36°56' W 008°09'0 0.6
2017-Oct-10 02:30N 36°56' W 008°08'0 0.5
2017-Oct-10 02:00N 36°56' W 008°08'0 0.6
2017-Oct-10 01:30N 36°56' W 008°08'0 0.5
2017-Oct-10 00:58N 36°55' W 008°08'0 0.6
2017-Oct-10 00:25N 36°55' W 008°07'3 7.0
2017-Oct-10 00:00N 36°58' W 008°08'1 0.1
2017-Oct-09 07:34N 36°59' W 008°07'3 9.6
2017-Oct-09 07:13N 36°56' W 008°07'0 1.2
2017-Oct-09 06:58N 36°55' W 008°07'0 0.4
2017-Oct-09 06:30N 36°55' W 008°06'0 0.3
2017-Oct-09 06:00N 36°55' W 008°06'0 0.2
2017-Oct-09 05:30N 36°55' W 008°06'0 0.4
2017-Oct-09 05:00N 36°55' W 008°06'1 2.2
2017-Oct-09 04:30N 36°56' W 008°06'1 1.9
2017-Oct-09 04:00N 36°57' W 008°07'2 4.9
2017-Oct-09 03:30N 36°58' W 008°04'2 4.8
2017-Oct-09 03:00N 36°57' W 008°02'2 0.7
2017-Oct-09 00:32N 36°56' W 008°03'1 8.3
2017-Oct-09 00:28N 36°56' W 008°03'4 7.9
2017-Oct-09 00:00N 36°59' W 008°05'  
2017-Oct-06 00:55N 36°55' W 008°04'4 4.8
2017-Oct-06 00:06N 36°59' W 008°05'1 8.4
2017-Oct-05 23:58N 37°00' W 008°06'  

Dump ship's entire track history